Time;durP1;ratioP1;P1;durP2;ratioP2;P2;SDS_P1;SDS_P2;PMS_P1;PMS_P2;Temp;Humidity;BMP_temperature;BMP_pressure;BME280_temperature;BME280_humidity;BME280_pressure;Samples;Min_cycle;Max_cycle;Signal;HPM_P1;HPM_P2
2022/04/12 00:03:03;;;;;;;12.68;6.90;;;6.80;57.30;;;;;;6152072;23;20033;-82
2022/04/12 00:05:29;;;;;;;14.13;6.75;;;;;;;;;;6180679;23;20029;-81
2022/04/12 00:07:55;;;;;;;14.40;7.60;;;6.70;59.40;;;;;;6155752;23;20047;-83
2022/04/12 00:10:21;;;;;;;18.38;7.72;;;7.10;57.60;;;;;;6157403;23;20456;-82
2022/04/12 00:12:47;;;;;;;25.75;7.78;;;6.60;99.90;;;;;;6183548;23;20016;-84
2022/04/12 00:15:13;;;;;;;15.18;7.95;;;6.60;83.30;;;;;;6183237;23;20080;-83
2022/04/12 00:20:27;;;;;;;15.25;8.38;;;6.60;90.70;;;;;;6183423;23;20062;-82
2022/04/12 00:22:54;;;;;;;15.95;8.85;;;6.50;83.40;;;;;;6183240;23;20448;-85
2022/04/12 00:25:22;;;;;;;15.27;8.27;;;7.60;79.00;;;;;;6156419;23;20017;-82
2022/04/12 00:27:49;;;;;;;15.77;8.43;;;7.40;90.00;;;;;;6183360;23;20072;-83
2022/04/12 00:30:15;;;;;;;19.20;8.48;;;6.50;86.60;;;;;;6156150;23;20451;-82
2022/04/12 00:32:41;;;;;;;14.73;8.18;;;6.70;83.90;;;;;;6183153;23;20104;-82
2022/04/12 00:35:07;;;;;;;15.93;8.18;;;8.40;96.40;;;;;;6182734;23;20021;-82
2022/04/12 00:42:45;;;;;;;18.95;9.13;;;6.40;89.30;;;;;;6170805;23;20399;-82
2022/04/12 00:45:11;;;;;;;19.80;9.57;;;6.40;85.40;;;;;;6155824;23;20059;-82
2022/04/12 00:47:39;;;;;;;19.88;8.40;;;6.70;86.30;;;;;;6181380;23;20084;-82
2022/04/12 00:50:06;;;;;;;24.38;9.43;;;7.10;79.50;;;;;;6182502;23;20020;-82
2022/04/12 00:52:37;;;;;;;16.45;8.55;;;6.40;83.10;;;;;;6131482;23;20024;-85
2022/04/12 00:55:04;;;;;;;20.20;9.50;;;6.30;81.80;;;;;;6155809;23;20048;-82
2022/04/12 00:57:32;;;;;;;14.63;8.32;;;6.30;99.90;;;;;;6131463;23;20024;-82
2022/04/12 01:00:00;;;;;;;22.63;8.93;;;6.20;87.60;;;;;;6156150;23;20379;-83
2022/04/12 01:02:26;;;;;;;21.98;9.00;;;6.10;91.30;;;;;;6178940;23;20447;-82
2022/04/12 01:04:52;;;;;;;19.45;9.80;;;6.10;93.20;;;;;;6151615;23;20086;-84
2022/04/12 01:07:19;;;;;;;17.75;9.00;;;6.00;94.30;;;;;;6182552;23;20025;-82
2022/04/12 01:09:45;;;;;;;17.63;9.07;;;6.60;97.00;;;;;;6152097;23;20049;-82
2022/04/12 01:12:11;;;;;;;18.73;9.15;;;6.00;95.50;;;;;;6180823;23;20028;-85
2022/04/12 01:14:38;;;;;;;22.95;9.45;;;5.70;95.90;;;;;;6177877;23;20435;-83
2022/04/12 01:17:07;;;;;;;19.63;9.32;;;7.50;98.30;;;;;;6182345;23;20017;-82
2022/04/12 01:19:34;;;;;;;23.90;10.05;;;6.40;99.90;;;;;;6178426;23;20017;-82
2022/04/12 01:22:05;;;;;;;21.77;10.63;;;6.80;99.90;;;;;;6178415;23;20021;-84
2022/04/12 01:24:32;;;;;;;15.55;8.73;;;5.80;99.90;;;;;;6153631;23;20017;-83
2022/04/12 01:26:58;;;;;;;17.20;9.70;;;6.90;99.90;;;;;;6180579;23;20036;-84
2022/04/12 01:29:25;;;;;;;19.63;10.63;;;5.80;99.10;;;;;;6178722;23;20411;-86
2022/04/12 01:31:51;;;;;;;17.23;9.27;;;7.10;99.90;;;;;;6178097;23;20443;-82
2022/04/12 01:34:16;;;;;;;20.23;10.23;;;5.70;99.90;;;;;;6177866;23;20076;-82
2022/04/12 01:36:42;;;;;;;17.42;10.02;;;7.10;99.90;;;;;;6179051;23;20044;-82
2022/04/12 01:39:08;;;;;;;19.25;10.45;;;5.70;99.90;;;;;;6180332;23;20443;-82
2022/04/12 01:41:34;;;;;;;19.60;9.20;;;;;;;;;;6177992;23;20024;-82
2022/04/12 01:44:00;;;;;;;18.42;10.40;;;5.60;99.90;;;;;;6180569;23;20104;-82
2022/04/12 01:46:27;;;;;;;19.17;10.70;;;7.40;99.90;;;;;;6150965;23;20111;-83
2022/04/12 01:48:52;;;;;;;20.30;11.55;;;6.20;99.90;;;;;;6177847;23;20163;-83
2022/04/12 01:51:18;;;;;;;23.33;12.27;;;5.50;99.90;;;;;;6177904;23;20456;-83
2022/04/12 01:53:44;;;;;;;21.08;11.95;;;5.30;99.90;;;;;;6177859;23;20048;-82
2022/04/12 01:56:10;;;;;;;20.45;10.00;;;6.90;99.90;;;;;;6179272;23;20076;-82
2022/04/12 01:58:36;;;;;;;20.88;11.55;;;5.50;99.90;;;;;;6153994;23;20464;-82
2022/04/12 02:01:02;;;;;;;19.60;12.07;;;5.40;99.90;;;;;;6177655;23;20335;-85
2022/04/12 02:03:28;;;;;;;20.02;11.05;;;6.60;99.90;;;;;;6127789;23;20335;-84
2022/04/12 02:05:57;;;;;;;25.05;11.18;;;6.10;99.90;;;;;;6177317;23;20091;-84
2022/04/12 02:08:23;;;;;;;23.90;11.70;;;6.80;99.90;;;;;;6178618;23;20078;-83
2022/04/12 02:10:49;;;;;;;21.90;11.85;;;6.20;99.90;;;;;;6178344;23;20099;-83
2022/04/12 02:13:16;;;;;;;22.08;11.02;;;5.50;99.90;;;;;;6153032;23;20021;-84
2022/04/12 02:15:43;;;;;;;21.15;11.95;;;5.20;99.90;;;;;;6179646;23;20023;-83
2022/04/12 02:18:08;;;;;;;18.33;10.98;;;5.20;99.90;;;;;;6151031;23;20040;-82
2022/04/12 02:20:34;;;;;;;22.48;12.25;;;5.30;99.90;;;;;;6151862;23;20029;-82
2022/04/12 02:23:00;;;;;;;24.05;12.23;;;6.50;99.90;;;;;;6152272;23;20443;-82
2022/04/12 02:25:25;;;;;;;28.10;12.77;;;5.10;99.90;;;;;;6179848;23;20315;-83
2022/04/12 02:27:51;;;;;;;20.30;11.52;;;5.40;99.90;;;;;;6177481;23;20020;-86
2022/04/12 02:30:18;;;;;;;24.20;12.25;;;5.10;99.90;;;;;;6178162;23;20088;-83
2022/04/12 02:32:43;;;;;;;22.13;12.75;;;5.10;99.90;;;;;;6151924;23;20017;-86
2022/04/12 02:35:09;;;;;;;26.17;12.45;;;5.00;99.90;;;;;;6179891;23;20023;-83
2022/04/12 02:37:35;;;;;;;24.15;11.88;;;5.00;99.90;;;;;;6179163;23;20419;-83
2022/04/12 02:40:02;;;;;;;21.17;10.85;;;4.90;99.90;;;;;;6176791;23;20053;-83
2022/04/12 02:42:28;;;;;;;19.63;11.40;;;5.00;99.90;;;;;;6157510;23;20043;-83
2022/04/12 02:44:53;;;;;;;16.98;10.98;;;5.30;99.90;;;;;;6184093;23;20400;-83
2022/04/12 02:47:22;;;;;;;25.40;13.07;;;4.90;99.90;;;;;;6155205;23;20021;-84
2022/04/12 02:49:49;;;;;;;19.90;11.98;;;5.40;99.90;;;;;;6181008;23;20450;-84
2022/04/12 02:52:15;;;;;;;20.65;11.43;;;4.80;99.90;;;;;;6153978;23;20021;-84
2022/04/12 02:54:41;;;;;;;21.83;12.00;;;6.00;99.90;;;;;;6154639;23;20450;-83
2022/04/12 02:57:07;;;;;;;23.92;12.65;;;4.80;99.90;;;;;;6179767;23;20360;-83
2022/04/12 02:59:32;;;;;;;23.75;12.93;;;5.00;99.90;;;;;;6179940;23;20021;-86
2022/04/12 03:01:58;;;;;;;24.70;13.38;;;4.80;99.90;;;;;;6180328;23;20380;-86
2022/04/12 03:04:24;;;;;;;22.17;13.60;;;4.70;99.90;;;;;;6152321;23;20664;-84
2022/04/12 03:06:49;;;;;;;23.05;12.48;;;4.90;99.90;;;;;;6153818;23;20017;-86
2022/04/12 03:09:15;;;;;;;19.88;12.70;;;5.10;99.90;;;;;;6180221;23;20021;-84
2022/04/12 03:11:41;;;;;;;20.02;11.07;;;4.70;99.90;;;;;;6183257;23;20021;-83
2022/04/12 03:14:08;;;;;;;21.40;12.40;;;4.70;99.90;;;;;;6153674;23;20032;-84
2022/04/12 03:16:34;;;;;;;27.65;13.27;;;3.30;99.90;;;;;;6152931;23;20021;-83
2022/04/12 03:19:00;;;;;;;19.90;11.85;;;4.60;99.90;;;;;;6177861;23;20021;-83
2022/04/12 03:21:25;;;;;;;23.85;12.98;;;4.90;99.90;;;;;;6178938;23;20042;-83
2022/04/12 03:23:51;;;;;;;25.45;13.73;;;5.20;99.90;;;;;;6179345;23;20107;-86
2022/04/12 03:26:17;;;;;;;20.75;12.70;;;6.60;99.90;;;;;;6180850;23;20021;-83
2022/04/12 03:28:42;;;;;;;27.48;13.90;;;4.70;99.90;;;;;;6153089;23;20297;-83
2022/04/12 03:31:08;;;;;;;25.02;15.05;;;;;;;;;;6153426;23;20088;-83
2022/04/12 03:33:34;;;;;;;24.60;14.32;;;4.80;99.90;;;;;;6181296;23;20021;-83
2022/04/12 03:36:00;;;;;;;24.42;14.73;;;4.40;99.90;;;;;;6178256;23;20029;-83
2022/04/12 03:38:25;;;;;;;23.42;12.95;;;4.60;99.90;;;;;;6128872;23;20029;-83
2022/04/12 03:40:51;;;;;;;24.33;11.98;;;5.30;99.90;;;;;;6178487;23;20143;-86
2022/04/12 03:43:17;;;;;;;23.00;12.98;;;8.20;99.90;;;;;;6178941;23;20025;-83
2022/04/12 03:45:43;;;;;;;24.27;12.70;;;6.10;99.90;;;;;;6183112;23;20040;-85
2022/04/12 03:48:09;;;;;;;21.58;11.88;;;6.40;99.90;;;;;;6179830;23;20060;-83
2022/04/12 03:50:34;;;;;;;23.50;12.32;;;4.80;99.90;;;;;;6179349;23;20079;-83
2022/04/12 03:53:01;;;;;;;21.23;12.38;;;6.20;99.90;;;;;;6182259;23;20048;-83
2022/04/12 03:55:30;;;;;;;22.15;12.00;;;5.50;99.90;;;;;;6179617;23;20017;-83
2022/04/12 03:57:58;;;;;;;23.50;11.73;;;6.60;99.90;;;;;;6178025;23;20013;-84
2022/04/12 04:00:24;;;;;;;19.15;11.68;;;6.00;99.90;;;;;;6153885;23;20296;-83
2022/04/12 04:02:50;;;;;;;20.23;11.13;;;5.70;99.90;;;;;;6178660;23;20057;-83
2022/04/12 04:05:15;;;;;;;21.15;12.25;;;6.20;99.90;;;;;;6153833;23;20336;-83
2022/04/12 04:07:41;;;;;;;26.73;13.07;;;4.70;99.90;;;;;;6155177;23;20025;-84
2022/04/12 04:10:07;;;;;;;23.35;12.75;;;5.70;99.90;;;;;;6182984;23;20017;-83
2022/04/12 04:12:33;;;;;;;23.17;12.30;;;5.00;99.90;;;;;;6183467;23;20021;-83
2022/04/12 04:14:59;;;;;;;23.10;13.00;;;5.00;99.90;;;;;;6182248;23;20100;-83
2022/04/12 04:17:24;;;;;;;23.38;13.05;;;6.00;99.90;;;;;;6156062;23;20372;-85
2022/04/12 04:19:50;;;;;;;21.75;12.85;;;5.80;99.90;;;;;;6181301;23;20072;-83
2022/04/12 04:22:16;;;;;;;22.98;12.90;;;;;;;;;;6182040;23;20128;-83
2022/04/12 04:24:42;;;;;;;20.38;12.48;;;5.00;99.90;;;;;;6155837;23;20021;-83
2022/04/12 04:27:08;;;;;;;25.25;14.40;;;5.00;99.90;;;;;;6182342;23;20021;-83
2022/04/12 04:29:35;;;;;;;26.40;14.15;;;5.20;99.90;;;;;;6181695;23;20088;-84
2022/04/12 04:32:01;;;;;;;20.10;12.60;;;4.70;99.90;;;;;;6182191;23;20080;-83
2022/04/12 04:34:27;;;;;;;22.90;13.68;;;5.00;99.90;;;;;;6182386;23;20330;-83
2022/04/12 04:36:53;;;;;;;26.80;14.73;;;6.60;99.90;;;;;;6183195;23;20021;-83
2022/04/12 04:39:18;;;;;;;30.17;14.10;;;5.90;99.90;;;;;;6182888;23;20398;-83
2022/04/12 04:41:44;;;;;;;25.38;13.27;;;5.00;99.90;;;;;;6183424;23;20013;-83
2022/04/12 04:44:10;;;;;;;24.33;13.65;;;4.80;99.90;;;;;;6182299;23;20396;-83
2022/04/12 04:46:36;;;;;;;23.92;13.05;;;6.30;99.90;;;;;;6156748;23;20025;-83
2022/04/12 04:49:01;;;;;;;25.70;13.88;;;5.20;99.90;;;;;;6182526;23;20510;-83
2022/04/12 04:51:27;;;;;;;22.27;13.65;;;5.40;99.90;;;;;;6182537;23;20021;-84
2022/04/12 04:53:59;;;;;;;20.67;11.77;;;4.90;99.90;;;;;;6183150;23;20075;-83
2022/04/12 04:56:27;;;;;;;22.92;13.65;;;6.10;99.90;;;;;;6157936;23;20028;-84
2022/04/12 04:58:53;;;;;;;27.23;15.25;;;4.90;99.90;;;;;;6182654;23;20017;-83
2022/04/12 05:01:20;;;;;;;22.92;14.73;;;6.50;99.90;;;;;;6182689;23;20071;-84
2022/04/12 05:03:47;;;;;;;25.97;14.00;;;4.80;99.90;;;;;;6156340;23;20092;-83
2022/04/12 05:06:13;;;;;;;25.08;14.32;;;4.80;99.90;;;;;;6182440;23;20610;-83
2022/04/12 05:08:39;;;;;;;25.67;12.70;;;6.90;99.90;;;;;;6182754;23;20013;-83
2022/04/12 05:11:05;;;;;;;23.33;12.73;;;4.80;99.90;;;;;;6182389;23;20020;-84
2022/04/12 05:13:30;;;;;;;24.88;13.50;;;6.60;99.90;;;;;;6156266;23;20021;-83
2022/04/12 05:15:56;;;;;;;24.00;13.68;;;6.20;99.90;;;;;;6182892;23;20047;-84
2022/04/12 05:18:21;;;;;;;26.05;13.98;;;4.60;99.90;;;;;;6182209;23;20017;-83
2022/04/12 05:20:47;;;;;;;27.25;13.57;;;6.20;99.90;;;;;;6131338;23;20430;-83
2022/04/12 05:23:13;;;;;;;24.67;14.00;;;4.70;99.90;;;;;;6182764;23;20017;-83
2022/04/12 05:25:38;;;;;;;24.30;13.52;;;5.00;99.90;;;;;;6183336;23;20055;-83
2022/04/12 05:28:04;;;;;;;23.35;12.68;;;6.20;99.90;;;;;;6156062;23;20028;-83
2022/04/12 05:30:31;;;;;;;24.77;14.10;;;4.90;99.90;;;;;;6183271;23;20017;-82
2022/04/12 05:32:57;;;;;;;22.17;13.35;;;5.80;99.90;;;;;;6156466;23;20043;-83
2022/04/12 05:35:23;;;;;;;26.40;13.95;;;6.10;99.90;;;;;;6156241;23;20091;-83
2022/04/12 05:37:53;;;;;;;24.77;13.40;;;5.40;99.90;;;;;;6183051;23;20083;-82
2022/04/12 05:40:21;;;;;;;26.27;13.90;;;5.40;99.90;;;;;;6156602;23;20470;-82
2022/04/12 05:42:47;;;;;;;22.08;13.93;;;5.80;99.90;;;;;;6182975;23;20024;-83
2022/04/12 05:45:14;;;;;;;30.73;14.35;;;6.40;99.90;;;;;;6181121;23;20025;-83
2022/04/12 05:47:51;;;;;;;23.48;12.95;;;6.50;99.90;;;;;;6181716;23;20087;-83
2022/04/12 05:50:21;;;;;;;23.30;12.20;;;7.70;99.90;;;;;;6155256;23;20056;-83
2022/04/12 05:52:47;;;;;;;23.92;12.70;;;6.40;99.90;;;;;;6182451;23;20017;-82
2022/04/12 05:55:15;;;;;;;20.40;11.05;;;6.70;67.90;;;;;;6155359;23;20450;-83
2022/04/12 05:57:51;;;;;;;23.65;12.48;;;6.50;93.70;;;;;;6182774;23;20028;-83
2022/04/12 06:00:18;;;;;;;21.95;12.25;;;6.60;99.90;;;;;;6181268;23;20028;-81
2022/04/12 06:02:45;;;;;;;21.48;12.63;;;6.60;97.80;;;;;;6181872;23;20100;-83
2022/04/12 06:05:13;;;;;;;18.90;10.90;;;;;;;;;;6156205;23;20017;-83
2022/04/12 06:07:40;;;;;;;21.35;11.13;;;6.70;91.50;;;;;;6183747;23;20021;-83
2022/04/12 06:10:06;;;;;;;23.42;13.20;;;6.80;91.40;;;;;;6183287;23;20471;-84
2022/04/12 06:12:32;;;;;;;22.30;13.48;;;6.90;97.50;;;;;;6133151;23;20053;-84
2022/04/12 06:14:57;;;;;;;23.75;13.20;;;8.20;55.00;;;;;;6184980;23;20028;-83
2022/04/12 06:17:30;;;;;;;21.13;11.98;;;7.20;80.40;;;;;;6156930;23;20080;-83
2022/04/12 06:20:16;;;;;;;21.38;12.07;;;7.60;80.40;;;;;;6183887;23;20013;-83
2022/04/12 06:22:42;;;;;;;21.20;12.32;;;7.50;89.00;;;;;;6156686;23;20021;-83
2022/04/12 06:25:10;;;;;;;22.90;12.98;;;7.60;88.30;;;;;;6156394;23;20095;-83
2022/04/12 06:27:45;;;;;;;30.38;12.18;;;7.60;35.10;;;;;;6182957;23;20031;-83
2022/04/12 06:30:16;;;;;;;18.95;11.05;;;7.70;49.10;;;;;;6182670;23;20020;-83
2022/04/12 06:32:43;;;;;;;23.15;11.90;;;8.80;46.10;;;;;;6179321;23;20013;-83
2022/04/12 06:35:10;;;;;;;19.73;10.65;;;8.50;39.80;;;;;;6154527;23;20025;-85
2022/04/12 06:37:37;;;;;;;26.92;11.68;;;7.90;37.50;;;;;;6182737;23;20017;-83
2022/04/12 06:40:07;;;;;;;18.93;10.23;;;8.00;16.80;;;;;;6182126;23;20423;-82
2022/04/12 06:42:34;;;;;;;20.77;10.93;;;8.10;1.00;;;;;;6181596;23;20244;-82
2022/04/12 06:45:00;;;;;;;21.15;10.65;;;8.20;7.40;;;;;;6181318;23;20442;-82
2022/04/12 06:47:26;;;;;;;16.55;9.90;;;8.30;1.00;;;;;;6181381;23;20495;-83
2022/04/12 06:49:52;;;;;;;20.60;11.32;;;8.30;1.00;;;;;;6155210;23;20017;-82
2022/04/12 06:52:22;;;;;;;21.13;11.15;;;8.70;4.90;;;;;;6181584;23;20036;-82
2022/04/12 06:54:49;;;;;;;17.92;11.07;;;10.10;5.20;;;;;;6182668;23;20470;-82
2022/04/12 06:57:15;;;;;;;22.70;10.77;;;;;;;;;;6181847;23;20486;-82
2022/04/12 06:59:41;;;;;;;27.02;11.77;;;8.70;1.00;;;;;;6182052;23;20031;-82
2022/04/12 07:02:07;;;;;;;23.27;11.20;;;8.70;1.00;;;;;;6179928;23;20021;-83
2022/04/12 07:04:33;;;;;;;19.80;10.65;;;8.70;1.00;;;;;;6155030;23;20025;-82
2022/04/12 07:07:00;;;;;;;20.50;10.75;;;9.30;1.00;;;;;;6182577;23;20351;-82
2022/04/12 07:09:28;;;;;;;21.63;11.57;;;9.50;6.50;;;;;;6154928;23;20025;-82
2022/04/12 07:11:54;;;;;;;;;;;8.80;1.00;;;;;;6182969;23;20021;-82
2022/04/12 07:14:20;;;;;;;22.40;10.68;;;8.80;1.00;;;;;;6154752;23;20354;-82
2022/04/12 07:16:47;;;;;;;16.75;10.00;;;8.80;1.00;;;;;;6179294;23;20021;-83
2022/04/12 07:19:12;;;;;;;20.75;11.18;;;9.30;4.20;;;;;;6179523;23;20108;-85
2022/04/12 07:21:39;;;;;;;24.40;11.07;;;8.90;1.00;;;;;;6181170;23;20037;-82
2022/04/12 07:24:06;;;;;;;18.67;10.07;;;8.90;1.00;;;;;;6156663;23;20075;-82
2022/04/12 07:26:32;;;;;;;18.33;10.90;;;8.90;1.00;;;;;;6155004;23;20017;-81
2022/04/12 07:28:58;;;;;;;22.23;10.55;;;9.30;1.00;;;;;;6184615;23;20017;-82
2022/04/12 07:31:24;;;;;;;23.88;10.23;;;9.10;1.00;;;;;;6156482;23;20107;-82
2022/04/12 07:33:50;;;;;;;17.90;10.35;;;9.50;1.00;;;;;;6132725;23;20021;-82
2022/04/12 07:36:15;;;;;;;17.10;10.80;;;10.90;1.00;;;;;;6132091;23;20340;-83
2022/04/12 07:38:42;;;;;;;22.63;11.25;;;12.20;1.00;;;;;;6132871;23;20095;-82
2022/04/12 07:41:09;;;;;;;19.48;9.68;;;13.20;1.00;;;;;;6157123;23;20093;-83
2022/04/12 07:43:37;;;;;;;20.17;13.02;;;14.00;1.00;;;;;;6183558;23;20025;-82
2022/04/12 07:46:03;;;;;;;16.88;8.95;;;14.60;1.00;;;;;;6184033;23;20416;-82
2022/04/12 07:48:29;;;;;;;17.27;8.50;;;15.10;1.00;;;;;;6157060;23;20478;-82
2022/04/12 07:50:55;;;;;;;21.23;9.27;;;15.90;1.00;;;;;;6157172;23;20080;-89
2022/04/12 07:53:21;;;;;;;17.80;12.80;;;16.40;1.00;;;;;;6152569;23;20104;-80
2022/04/12 07:55:46;;;;;;;14.90;8.65;;;16.60;1.00;;;;;;6170805;23;20021;-79
2022/04/12 07:58:14;;;;;;;16.58;8.48;;;16.70;1.00;;;;;;6174607;23;20017;-82
2022/04/12 08:00:40;;;;;;;17.35;8.90;;;16.90;1.00;;;;;;6196044;23;20020;-80
2022/04/12 08:03:07;;;;;;;16.67;9.35;;;17.70;1.00;;;;;;6135616;23;20074;-82
2022/04/12 08:05:34;;;;;;;17.58;10.70;;;17.70;1.00;;;;;;6185887;23;20057;-79
2022/04/12 08:08:00;;;;;;;16.02;7.72;;;17.90;1.00;;;;;;6185756;23;20017;-80
2022/04/12 08:10:25;;;;;;;13.88;7.53;;;18.70;1.00;;;;;;6184651;23;20017;-80
2022/04/12 08:12:52;;;;;;;14.45;7.90;;;18.40;1.00;;;;;;6132549;23;20265;-81
2022/04/12 08:15:18;;;;;;;15.53;7.33;;;19.00;1.00;;;;;;6184132;23;20021;-80
2022/04/12 08:17:45;;;;;;;13.02;7.47;;;19.30;1.00;;;;;;6183156;23;20017;-81
2022/04/12 08:20:13;;;;;;;17.20;7.88;;;19.50;1.00;;;;;;6183428;23;20057;-81
2022/04/12 08:22:40;;;;;;;15.75;8.38;;;19.30;99.90;;;;;;6183509;23;20223;-80
2022/04/12 08:25:07;;;;;;;15.93;9.87;;;18.90;99.90;;;;;;6157887;23;20083;-81
2022/04/12 08:27:33;;;;;;;16.23;9.25;;;18.50;99.90;;;;;;6185830;23;20241;-81
2022/04/12 08:29:59;;;;;;;13.27;7.35;;;17.90;99.90;;;;;;6184451;23;20083;-82
2022/04/12 08:32:25;;;;;;;15.55;7.72;;;18.40;99.90;;;;;;6157237;23;20052;-82
2022/04/12 08:34:50;;;;;;;18.50;9.45;;;18.40;99.90;;;;;;6183644;23;20032;-80
2022/04/12 08:37:16;;;;;;;16.10;8.40;;;18.90;99.90;;;;;;6157800;23;20017;-82
2022/04/12 08:39:42;;;;;;;15.27;7.35;;;18.90;99.90;;;;;;6156606;23;20139;-81
2022/04/12 08:42:08;;;;;;;19.00;7.78;;;18.60;99.90;;;;;;6183027;23;20053;-83
2022/04/12 08:44:36;;;;;;;16.23;7.90;;;18.40;99.90;;;;;;6131778;23;20025;-82
2022/04/12 08:47:06;;;;;;;17.10;10.15;;;19.40;99.90;;;;;;6183803;23;20028;-82
2022/04/12 08:49:32;;;;;;;16.50;7.85;;;19.30;99.90;;;;;;6155047;23;20021;-81
2022/04/12 08:51:58;;;;;;;17.33;8.30;;;19.20;99.90;;;;;;6156964;23;20100;-81
2022/04/12 08:54:25;;;;;;;14.55;7.97;;;20.30;99.90;;;;;;6156973;23;20032;-81
2022/04/12 08:56:52;;;;;;;12.43;7.20;;;20.40;99.90;;;;;;6157653;23;20056;-84
2022/04/12 08:59:18;;;;;;;12.27;6.97;;;20.80;99.90;;;;;;6157255;23;20431;-83
2022/04/12 09:01:49;;;;;;;16.35;10.02;;;21.30;99.90;;;;;;6182809;23;20075;-81
2022/04/12 09:04:15;;;;;;;15.23;8.10;;;20.90;99.90;;;;;;6156217;23;20056;-81
2022/04/12 09:06:51;;;;;;;13.85;8.43;;;21.30;99.90;;;;;;6182858;23;20781;-80
2022/04/12 09:09:20;;;;;;;15.68;8.30;;;21.30;99.90;;;;;;6183132;23;20050;-83
2022/04/12 09:12:09;;;;;;;17.65;7.57;;;21.10;99.90;;;;;;6156255;23;20584;-81
2022/04/12 09:14:52;;;;;;;17.75;8.98;;;21.10;99.90;;;;;;6182896;23;20160;-81
2022/04/12 09:17:27;;;;;;;13.82;8.57;;;21.10;99.90;;;;;;6183291;23;20017;-83
2022/04/12 09:19:53;;;;;;;17.98;8.15;;;20.80;99.90;;;;;;6182891;23;20017;-80
2022/04/12 09:22:22;;;;;;;12.57;7.68;;;20.60;99.90;;;;;;6183094;23;20071;-81
2022/04/12 09:24:58;;;;;;;15.55;9.38;;;20.80;99.90;;;;;;6182379;23;20055;-80
2022/04/12 09:27:27;;;;;;;15.60;8.77;;;20.30;99.90;;;;;;6156288;23;20096;-83
2022/04/12 09:29:57;;;;;;;14.32;10.65;;;20.40;99.90;;;;;;6178209;23;20013;-84
2022/04/12 09:32:24;;;;;;;13.27;8.65;;;20.20;99.90;;;;;;6181974;23;20067;-83
2022/04/12 09:34:50;;;;;;;;;;;20.00;99.90;;;;;;6181543;23;20017;-82
2022/04/12 09:37:24;;;;;;;14.90;8.35;;;20.60;99.90;;;;;;6182080;23;19916;-83
2022/04/12 09:39:54;;;;;;;14.70;9.07;;;20.30;99.90;;;;;;6182186;23;20017;-82
2022/04/12 09:42:38;;;;;;;17.77;11.85;;;20.10;99.90;;;;;;6182627;23;20025;-82
2022/04/12 09:45:05;;;;;;;15.10;9.23;;;19.80;99.90;;;;;;6181934;23;20035;-82
2022/04/12 09:47:32;;;;;;;15.82;9.90;;;19.90;99.90;;;;;;6181477;23;20017;-83
2022/04/12 09:49:59;;;;;;;18.00;9.13;;;19.50;99.90;;;;;;6182100;23;20073;-82
2022/04/12 09:52:24;;;;;;;13.82;8.18;;;19.70;99.90;;;;;;6182572;23;20027;-83
2022/04/12 09:54:51;;;;;;;20.23;9.50;;;20.20;99.90;;;;;;6181653;23;20017;-83
2022/04/12 09:57:17;;;;;;;20.13;9.60;;;21.00;99.90;;;;;;6181795;23;20481;-84
2022/04/12 09:59:44;;;;;;;18.13;11.73;;;20.80;99.90;;;;;;6181896;23;20304;-84
2022/04/12 10:02:11;;;;;;;16.23;10.43;;;20.80;99.90;;;;;;6155834;23;20017;-83
2022/04/12 10:04:38;;;;;;;14.43;9.75;;;21.30;99.90;;;;;;6181329;23;20335;-83
2022/04/12 10:07:06;;;;;;;15.50;9.65;;;21.70;99.90;;;;;;6182335;23;20024;-83
2022/04/12 10:09:36;;;;;;;17.58;13.68;;;22.20;99.90;;;;;;6181620;23;20017;-83
2022/04/12 10:12:02;;;;;;;15.07;11.57;;;21.70;99.90;;;;;;6155952;23;20017;-84
2022/04/12 10:14:30;;;;;;;16.23;10.55;;;22.90;99.90;;;;;;6181237;23;20024;-85
2022/04/12 10:16:56;;;;;;;20.20;12.50;;;23.50;99.90;;;;;;6182460;23;20020;-83
2022/04/12 10:19:23;;;;;;;18.77;14.32;;;23.20;99.90;;;;;;6181047;23;20130;-83
2022/04/12 10:21:48;;;;;;;19.02;13.55;;;22.90;99.90;;;;;;6154945;23;20174;-84
2022/04/12 10:24:16;;;;;;;18.60;13.52;;;23.10;99.90;;;;;;6155765;23;20435;-84
2022/04/12 10:26:44;;;;;;;;;;;23.40;99.90;;;;;;6181950;23;20442;-84
2022/04/12 10:29:09;;;;;;;17.17;14.82;;;23.90;99.90;;;;;;6155449;23;19948;-84
2022/04/12 10:31:35;;;;;;;24.02;21.52;;;24.60;99.90;;;;;;6181967;23;20028;-84
2022/04/12 10:34:01;;;;;;;30.23;27.27;;;23.70;99.90;;;;;;6153154;23;20060;-81
2022/04/12 10:37:12;;;;;;;21.45;16.70;;;22.60;99.90;;;;;;6155106;23;20028;-82
2022/04/12 10:39:50;;;;;;;27.58;25.10;;;22.30;99.90;;;;;;6147846;23;20013;-81
2022/04/12 10:42:34;;;;;;;21.38;18.73;;;21.90;99.90;;;;;;6181041;23;20021;-82
2022/04/12 10:45:03;;;;;;;25.38;23.02;;;23.30;99.90;;;;;;6183030;23;20175;-81
2022/04/12 10:47:34;;;;;;;23.55;21.45;;;23.70;99.90;;;;;;6181953;23;20017;-82
2022/04/12 10:50:05;;;;;;;38.25;35.10;;;24.80;99.90;;;;;;6182157;23;20021;-81
2022/04/12 10:52:48;;;;;;;20.23;18.33;;;23.50;99.90;;;;;;6155647;23;20025;-83
2022/04/12 10:55:15;;;;;;;74.28;68.90;;;24.10;99.90;;;;;;6182383;23;20067;-82
2022/04/12 10:57:41;;;;;;;51.20;47.38;;;24.00;99.90;;;;;;6181859;23;20513;-82
2022/04/12 11:00:10;;;;;;;51.20;47.03;;;23.40;99.90;;;;;;6182248;23;20103;-80
2022/04/12 11:02:44;;;;;;;57.60;52.25;;;23.50;99.90;;;;;;6182407;23;20029;-81
2022/04/12 11:05:45;;;;;;;44.42;41.03;;;23.50;99.90;;;;;;6157756;23;20021;-81
2022/04/12 11:08:13;;;;;;;52.38;47.92;;;24.10;99.90;;;;;;6184070;23;20579;-79
2022/04/12 11:10:40;;;;;;;101.63;90.10;;;23.50;99.90;;;;;;6132536;23;20048;-79
2022/04/12 11:13:09;;;;;;;41.40;38.10;;;23.80;99.90;;;;;;6182635;23;20392;-82
2022/04/12 11:15:37;;;;;;;316.30;162.70;;;23.50;99.90;;;;;;6157389;23;20013;-84
2022/04/12 11:18:12;;;;;;;;;;;22.90;99.90;;;;;;6157634;23;20017;-80
2022/04/12 11:20:42;;;;;;;30.02;27.48;;;21.90;99.90;;;;;;6182925;23;20346;-80
2022/04/12 11:23:13;;;;;;;113.70;103.22;;;22.60;99.90;;;;;;6157632;23;20043;-81
2022/04/12 11:25:49;;;;;;;129.45;112.30;;;22.70;99.90;;;;;;6183621;23;20024;-82
2022/04/12 11:28:25;;;;;;;43.03;39.78;;;22.60;99.90;;;;;;6184232;23;20021;-81
2022/04/12 11:30:58;;;;;;;45.92;42.40;;;22.70;99.90;;;;;;6157296;23;20017;-81
2022/04/12 11:33:27;;;;;;;87.45;78.30;;;22.50;99.90;;;;;;6182967;23;20463;-80
2022/04/12 11:35:54;;;;;;;72.57;66.28;;;22.00;99.90;;;;;;6156618;23;20021;-80
2022/04/12 11:38:22;;;;;;;29.00;26.23;;;21.80;99.90;;;;;;6157318;23;20040;-81
2022/04/12 11:40:48;;;;;;;31.05;28.25;;;21.70;99.90;;;;;;6157477;23;20087;-81
2022/04/12 11:43:25;;;;;;;102.63;87.95;;;21.90;99.90;;;;;;6183531;23;20013;-82
2022/04/12 11:45:56;;;;;;;1218.55;650.60;;;21.50;99.90;;;;;;6183740;23;20024;-82
2022/04/12 11:48:22;;;;;;;1208.53;610.15;;;21.50;99.90;;;;;;6184204;23;20026;-82
2022/04/12 11:50:55;;;;;;;1074.50;544.63;;;21.10;99.90;;;;;;6156613;23;20152;-81
2022/04/12 11:53:22;;;;;;;1125.97;539.58;;;20.70;99.90;;;;;;6184686;23;20060;-82
2022/04/12 11:55:49;;;;;;;806.38;526.60;;;20.70;99.90;;;;;;6183701;23;20324;-82
2022/04/12 11:58:18;;;;;;;639.70;432.70;;;21.10;99.90;;;;;;6184362;23;20024;-82
2022/04/12 12:00:43;;;;;;;472.02;330.45;;;21.20;99.90;;;;;;6184322;23;20021;-82
2022/04/12 12:03:18;;;;;;;1061.90;661.60;;;21.70;99.90;;;;;;6183776;23;20430;-82
2022/04/12 12:05:47;;;;;;;431.13;288.83;;;22.30;99.90;;;;;;6183302;23;20020;-82
2022/04/12 12:08:19;;;;;;;1181.47;589.90;;;22.40;99.90;;;;;;6157550;23;20074;-82
2022/04/12 12:10:46;;;;;;;1232.35;635.60;;;22.20;99.90;;;;;;6156733;23;20126;-82
2022/04/12 12:13:12;;;;;;;939.47;597.35;;;22.10;99.90;;;;;;6184056;23;20017;-81
2022/04/12 12:15:37;;;;;;;996.40;537.60;;;22.10;99.90;;;;;;6183714;23;20021;-82
2022/04/12 12:18:06;;;;;;;844.08;460.33;;;21.80;99.90;;;;;;6183533;23;20023;-82
2022/04/12 12:20:38;;;;;;;327.30;296.63;;;21.50;99.90;;;;;;6156674;23;20044;-82
2022/04/12 12:23:06;;;;;;;1194.18;581.20;;;21.50;99.90;;;;;;6183480;23;20021;-82
2022/04/12 12:25:37;;;;;;;1182.80;528.38;;;21.00;99.90;;;;;;6183819;23;20120;-82
2022/04/12 12:28:15;;;;;;;283.85;260.42;;;20.90;99.90;;;;;;6156790;23;20131;-82
2022/04/12 12:30:43;;;;;;;882.53;541.65;;;20.70;99.90;;;;;;6183490;23;20017;-82
2022/04/12 12:33:09;;;;;;;367.77;326.73;;;20.40;99.90;;;;;;6183127;23;20024;-82
2022/04/12 12:35:39;;;;;;;1618.97;772.95;;;20.50;99.90;;;;;;6183440;23;20048;-81
2022/04/12 12:38:21;;;;;;;1189.10;678.03;;;20.00;99.90;;;;;;6183476;23;20062;-82
2022/04/12 12:40:47;;;;;;;288.10;166.80;;;19.70;99.90;;;;;;6183115;23;20119;-82
2022/04/12 12:43:14;;;;;;;26.23;18.40;;;19.30;99.90;;;;;;6183487;23;20348;-83
2022/04/12 12:45:42;;;;;;;113.05;67.32;;;19.50;99.90;;;;;;6183756;23;20039;-82
2022/04/12 12:48:10;;;;;;;36.25;26.80;;;19.60;99.90;;;;;;6156948;23;20013;-82
2022/04/12 12:50:38;;;;;;;43.38;32.42;;;19.70;99.90;;;;;;6182120;23;20025;-81